UCA4299 KIAH-KELP
Flight info
| Callsign | UCA4299 |
|---|---|
| Flight time | 1h 36m |
| Altitude | 30000 |
| Route | PITZZ5 CRGER DCT TXSAS BEAHR3 |
| Aircraft | E145/M-SDFGIRW/S |
Departure
| Time | 2026-04-21 01:29 |
|---|---|
| Airport | George Bush Intercontinental Airport (KIAH) |
Arrival
| Time | 2026-04-21 03:05 |
|---|---|
| Airport | El Paso International Airport (KELP) |
| Time | Latitude | Longitude | Altitude | Speed | Heading |
|---|---|---|---|---|---|
| 2026-04-21 00:47 | 29.98572 | -95.34383 | 98 ft | 0 kts | 290° |
| 2026-04-21 01:15 | 29.98567 | -95.34367 | 98 ft | 2 kts | 290° |
| 2026-04-21 01:16 | 29.98560 | -95.34351 | 98 ft | 2 kts | 315° |
| 2026-04-21 01:16 | 29.98548 | -95.34342 | 98 ft | 2 kts | 347° |
| 2026-04-21 01:16 | 29.98533 | -95.34342 | 98 ft | 2 kts | 2° |
| 2026-04-21 01:16 | 29.98518 | -95.34342 | 98 ft | 2 kts | 0° |
| 2026-04-21 01:17 | 29.98503 | -95.34342 | 98 ft | 2 kts | 0° |
| 2026-04-21 01:17 | 29.98488 | -95.34342 | 98 ft | 2 kts | 0° |
| 2026-04-21 01:17 | 29.98473 | -95.34342 | 98 ft | 2 kts | 0° |
| 2026-04-21 01:17 | 29.98459 | -95.34342 | 98 ft | 2 kts | 0° |
| 2026-04-21 01:18 | 29.98444 | -95.34342 | 98 ft | 2 kts | 0° |
| 2026-04-21 01:18 | 29.98429 | -95.34342 | 98 ft | 2 kts | 0° |
| 2026-04-21 01:18 | 29.98414 | -95.34342 | 98 ft | 2 kts | 0° |
| 2026-04-21 01:18 | 29.98399 | -95.34342 | 98 ft | 2 kts | 0° |
| 2026-04-21 01:19 | 29.98385 | -95.34338 | 98 ft | 2 kts | 320° |
| 2026-04-21 01:19 | 29.98377 | -95.34325 | 98 ft | 2 kts | 281° |
| 2026-04-21 01:19 | 29.98376 | -95.34313 | 98 ft | 0 kts | 268° |
| 2026-04-21 01:22 | 29.98376 | -95.34322 | 98 ft | 2 kts | 272° |
| 2026-04-21 01:22 | 29.98377 | -95.34356 | 98 ft | 5 kts | 271° |
| 2026-04-21 01:22 | 29.98374 | -95.34412 | 98 ft | 8 kts | 255° |
| 2026-04-21 01:23 | 29.98344 | -95.34469 | 98 ft | 8 kts | 236° |
| 2026-04-21 01:23 | 29.98326 | -95.34548 | 97 ft | 12 kts | 269° |
| 2026-04-21 01:23 | 29.98325 | -95.34663 | 95 ft | 15 kts | 270° |
| 2026-04-21 01:23 | 29.98325 | -95.34770 | 95 ft | 12 kts | 270° |
| 2026-04-21 01:24 | 29.98325 | -95.34877 | 95 ft | 13 kts | 270° |
| 2026-04-21 01:24 | 29.98325 | -95.34972 | 95 ft | 9 kts | 270° |
| 2026-04-21 01:24 | 29.98325 | -95.35053 | 95 ft | 11 kts | 270° |
| 2026-04-21 01:24 | 29.98325 | -95.35139 | 95 ft | 8 kts | 273° |
| 2026-04-21 01:25 | 29.98366 | -95.35191 | 95 ft | 10 kts | 330° |
| 2026-04-21 01:25 | 29.98438 | -95.35237 | 95 ft | 13 kts | 332° |
| 2026-04-21 01:25 | 29.98524 | -95.35291 | 95 ft | 15 kts | 332° |
| 2026-04-21 01:25 | 29.98624 | -95.35352 | 95 ft | 16 kts | 332° |
| 2026-04-21 01:26 | 29.98720 | -95.35410 | 95 ft | 13 kts | 332° |
| 2026-04-21 01:26 | 29.98809 | -95.35465 | 95 ft | 14 kts | 332° |
| 2026-04-21 01:26 | 29.98881 | -95.35512 | 95 ft | 9 kts | 316° |
| 2026-04-21 01:26 | 29.98875 | -95.35577 | 95 ft | 9 kts | 242° |
| 2026-04-21 01:27 | 29.98838 | -95.35656 | 95 ft | 12 kts | 242° |
| 2026-04-21 01:27 | 29.98798 | -95.35742 | 95 ft | 10 kts | 242° |
| 2026-04-21 01:27 | 29.98765 | -95.35773 | 95 ft | 6 kts | 169° |
| 2026-04-21 01:27 | 29.98739 | -95.35758 | 95 ft | 0 kts | 152° |
| 2026-04-21 01:28 | 29.98712 | -95.35741 | 95 ft | 16 kts | 152° |
| 2026-04-21 01:28 | 29.98415 | -95.35559 | 95 ft | 81 kts | 152° |
| 2026-04-21 01:28 | 29.97725 | -95.35136 | 95 ft | 139 kts | 152° |
| 2026-04-21 01:28 | 29.96784 | -95.34554 | 331 ft | 160 kts | 149° |
| 2026-04-21 01:29 | 29.95787 | -95.33917 | 880 ft | 169 kts | 148° |
| 2026-04-21 01:29 | 29.94775 | -95.33296 | 1624 ft | 170 kts | 157° |
| 2026-04-21 01:29 | 29.93550 | -95.33257 | 2244 ft | 187 kts | 191° |
| 2026-04-21 01:29 | 29.92415 | -95.34031 | 2925 ft | 203 kts | 218° |
| 2026-04-21 01:30 | 29.91514 | -95.35411 | 3512 ft | 227 kts | 237° |
| 2026-04-21 01:30 | 29.90787 | -95.37061 | 4205 ft | 240 kts | 241° |
| 2026-04-21 01:30 | 29.90076 | -95.38887 | 4537 ft | 259 kts | 244° |
| 2026-04-21 01:30 | 29.89358 | -95.40807 | 4784 ft | 262 kts | 244° |
| 2026-04-21 01:31 | 29.88626 | -95.42765 | 4922 ft | 270 kts | 242° |
| 2026-04-21 01:31 | 29.87718 | -95.44654 | 5026 ft | 274 kts | 237° |
| 2026-04-21 01:31 | 29.86748 | -95.46577 | 5639 ft | 279 kts | 237° |
| 2026-04-21 01:31 | 29.85813 | -95.48434 | 6757 ft | 268 kts | 238° |
| 2026-04-21 01:32 | 29.84901 | -95.50282 | 7652 ft | 267 kts | 239° |
| 2026-04-21 01:32 | 29.83998 | -95.52143 | 8459 ft | 268 kts | 240° |
| 2026-04-21 01:32 | 29.83108 | -95.53992 | 9278 ft | 268 kts | 244° |
| 2026-04-21 01:32 | 29.82718 | -95.56079 | 10060 ft | 270 kts | 274° |
| 2026-04-21 01:33 | 29.83268 | -95.58126 | 10735 ft | 277 kts | 299° |
| 2026-04-21 01:33 | 29.84282 | -95.60061 | 11261 ft | 287 kts | 298° |
| 2026-04-21 01:33 | 29.85280 | -95.62063 | 11824 ft | 295 kts | 298° |
| 2026-04-21 01:33 | 29.86314 | -95.64151 | 12378 ft | 303 kts | 298° |
| 2026-04-21 01:34 | 29.87370 | -95.66287 | 12846 ft | 312 kts | 298° |
| 2026-04-21 01:34 | 29.88444 | -95.68459 | 13384 ft | 319 kts | 298° |
| 2026-04-21 01:34 | 29.89562 | -95.70724 | 13857 ft | 327 kts | 297° |
| 2026-04-21 01:34 | 29.90687 | -95.73001 | 14276 ft | 336 kts | 297° |
| 2026-04-21 01:35 | 29.91850 | -95.75360 | 14832 ft | 339 kts | 298° |
| 2026-04-21 01:35 | 29.93019 | -95.77729 | 15417 ft | 341 kts | 297° |
| 2026-04-21 01:35 | 29.94188 | -95.80103 | 15950 ft | 344 kts | 297° |
| 2026-04-21 01:35 | 29.95365 | -95.82491 | 16491 ft | 347 kts | 297° |
| 2026-04-21 01:36 | 29.96554 | -95.84909 | 17048 ft | 348 kts | 297° |
| 2026-04-21 01:36 | 29.97756 | -95.87352 | 17543 ft | 353 kts | 297° |
| 2026-04-21 01:36 | 29.98969 | -95.89818 | 18090 ft | 354 kts | 297° |
| 2026-04-21 01:36 | 30.00169 | -95.92258 | 18720 ft | 352 kts | 297° |
| 2026-04-21 01:37 | 30.01368 | -95.94699 | 19368 ft | 351 kts | 297° |
| 2026-04-21 01:37 | 30.02563 | -95.97135 | 19954 ft | 350 kts | 297° |
| 2026-04-21 01:37 | 30.03756 | -95.99567 | 20517 ft | 350 kts | 297° |
| 2026-04-21 01:37 | 30.04950 | -96.02003 | 21104 ft | 349 kts | 297° |
| 2026-04-21 01:38 | 30.06143 | -96.04439 | 21663 ft | 349 kts | 297° |
| 2026-04-21 01:38 | 30.07138 | -96.06974 | 22197 ft | 345 kts | 282° |
| 2026-04-21 01:38 | 30.07579 | -96.09666 | 22769 ft | 343 kts | 279° |
| 2026-04-21 01:38 | 30.07999 | -96.12342 | 23328 ft | 342 kts | 279° |
| 2026-04-21 01:39 | 30.08416 | -96.15030 | 23905 ft | 340 kts | 278° |
| 2026-04-21 01:39 | 30.08833 | -96.17722 | 24474 ft | 339 kts | 278° |
| 2026-04-21 01:39 | 30.09244 | -96.20382 | 25076 ft | 337 kts | 278° |
| 2026-04-21 01:39 | 30.09650 | -96.23010 | 25619 ft | 336 kts | 278° |
| 2026-04-21 01:40 | 30.10058 | -96.25655 | 26193 ft | 334 kts | 278° |
| 2026-04-21 01:40 | 30.10462 | -96.28286 | 26715 ft | 334 kts | 278° |
| 2026-04-21 01:40 | 30.10864 | -96.30894 | 27260 ft | 332 kts | 278° |
| 2026-04-21 01:40 | 30.11265 | -96.33508 | 27775 ft | 331 kts | 278° |
| 2026-04-21 01:41 | 30.11664 | -96.36111 | 28295 ft | 329 kts | 278° |
| 2026-04-21 01:41 | 30.12059 | -96.38693 | 28804 ft | 328 kts | 278° |
| 2026-04-21 01:41 | 30.12454 | -96.41277 | 29327 ft | 326 kts | 278° |
| 2026-04-21 01:41 | 30.12847 | -96.43845 | 29822 ft | 325 kts | 278° |
| 2026-04-21 01:42 | 30.13239 | -96.46427 | 29981 ft | 332 kts | 278° |
| 2026-04-21 01:42 | 30.13647 | -96.49103 | 29994 ft | 341 kts | 278° |
| 2026-04-21 01:42 | 30.14483 | -96.54606 | 29994 ft | 359 kts | 278° |
| 2026-04-21 01:43 | 30.15359 | -96.60387 | 29991 ft | 374 kts | 278° |
| 2026-04-21 01:43 | 30.16270 | -96.66421 | 30003 ft | 388 kts | 278° |
| 2026-04-21 01:44 | 30.17212 | -96.72678 | 30008 ft | 401 kts | 278° |
| 2026-04-21 01:44 | 30.18170 | -96.79062 | 30006 ft | 407 kts | 278° |
| 2026-04-21 01:45 | 30.19134 | -96.85514 | 30009 ft | 410 kts | 278° |
| 2026-04-21 01:45 | 30.20098 | -96.91983 | 30010 ft | 410 kts | 278° |
| 2026-04-21 01:46 | 30.21062 | -96.98474 | 30012 ft | 410 kts | 278° |
| 2026-04-21 01:46 | 30.22014 | -97.04912 | 30011 ft | 409 kts | 278° |
| 2026-04-21 01:47 | 30.22975 | -97.11375 | 30006 ft | 409 kts | 278° |
| 2026-04-21 01:47 | 30.23945 | -97.17875 | 29998 ft | 408 kts | 278° |
| 2026-04-21 01:48 | 30.24898 | -97.24293 | 29991 ft | 408 kts | 278° |
| 2026-04-21 01:48 | 30.25852 | -97.30730 | 29987 ft | 408 kts | 278° |
| 2026-04-21 01:49 | 30.26808 | -97.37205 | 29990 ft | 407 kts | 278° |
| 2026-04-21 01:49 | 30.27754 | -97.43639 | 29983 ft | 407 kts | 278° |
| 2026-04-21 01:50 | 30.28694 | -97.50055 | 29984 ft | 407 kts | 278° |
| 2026-04-21 01:50 | 30.29629 | -97.56459 | 29977 ft | 406 kts | 278° |
| 2026-04-21 01:51 | 30.30566 | -97.62900 | 29976 ft | 406 kts | 278° |
| 2026-04-21 01:51 | 30.31497 | -97.69321 | 29986 ft | 406 kts | 277° |
| 2026-04-21 01:52 | 30.33296 | -97.78897 | 29987 ft | 407 kts | 281° |
| 2026-04-21 01:53 | 30.34647 | -97.85227 | 29988 ft | 408 kts | 281° |
| 2026-04-21 01:53 | 30.35997 | -97.91616 | 29990 ft | 408 kts | 281° |
| 2026-04-21 01:54 | 30.37330 | -97.97942 | 29990 ft | 408 kts | 281° |
| 2026-04-21 01:54 | 30.38671 | -98.04321 | 29985 ft | 408 kts | 281° |
| 2026-04-21 01:55 | 30.40008 | -98.10699 | 29986 ft | 408 kts | 281° |
| 2026-04-21 01:55 | 30.41336 | -98.17049 | 29983 ft | 408 kts | 281° |
| 2026-04-21 01:56 | 30.42666 | -98.23424 | 29978 ft | 408 kts | 281° |
| 2026-04-21 01:56 | 30.43992 | -98.29800 | 29978 ft | 408 kts | 281° |
| 2026-04-21 01:57 | 30.45284 | -98.36154 | 29985 ft | 407 kts | 280° |
| 2026-04-21 01:57 | 30.46494 | -98.42577 | 29983 ft | 407 kts | 280° |
| 2026-04-21 01:58 | 30.47699 | -98.48959 | 29977 ft | 407 kts | 280° |
| 2026-04-21 01:58 | 30.48903 | -98.55353 | 29971 ft | 407 kts | 280° |
| 2026-04-21 01:59 | 30.50104 | -98.61751 | 29963 ft | 407 kts | 280° |
| 2026-04-21 01:59 | 30.51128 | -98.67223 | 29967 ft | 407 kts | 279° |
| 2026-04-21 02:00 | 30.51175 | -98.67473 | 29968 ft | 407 kts | 279° |
| 2026-04-21 02:00 | 30.51222 | -98.67722 | 29968 ft | 407 kts | 279° |
| 2026-04-21 02:01 | 30.51268 | -98.67972 | 29968 ft | 407 kts | 279° |
| 2026-04-21 02:01 | 30.52335 | -98.73686 | 29962 ft | 408 kts | 279° |
| 2026-04-21 02:02 | 30.53522 | -98.80061 | 29964 ft | 408 kts | 279° |
| 2026-04-21 02:02 | 30.54716 | -98.86492 | 29972 ft | 408 kts | 279° |
| 2026-04-21 02:03 | 30.55908 | -98.92929 | 29974 ft | 409 kts | 279° |
| 2026-04-21 02:03 | 30.57090 | -98.99329 | 29966 ft | 409 kts | 279° |
| 2026-04-21 02:04 | 30.58279 | -99.05791 | 29969 ft | 409 kts | 279° |
| 2026-04-21 02:04 | 30.59455 | -99.12200 | 29961 ft | 409 kts | 279° |
| 2026-04-21 02:05 | 30.60632 | -99.18629 | 29959 ft | 409 kts | 279° |
| 2026-04-21 02:05 | 30.61812 | -99.25100 | 29953 ft | 409 kts | 279° |
| 2026-04-21 02:06 | 30.62981 | -99.31521 | 29960 ft | 408 kts | 279° |
| 2026-04-21 02:06 | 30.63562 | -99.34723 | 30196 ft | 402 kts | 279° |
| 2026-04-21 02:06 | 30.64139 | -99.37906 | 30210 ft | 402 kts | 279° |
| 2026-04-21 02:07 | 30.65282 | -99.44224 | 30205 ft | 403 kts | 279° |
| 2026-04-21 02:07 | 30.66431 | -99.50600 | 30204 ft | 403 kts | 279° |
| 2026-04-21 02:08 | 30.67576 | -99.56964 | 30204 ft | 403 kts | 279° |
| 2026-04-21 02:08 | 30.68711 | -99.63296 | 30205 ft | 404 kts | 279° |
| 2026-04-21 02:09 | 30.69852 | -99.69681 | 30213 ft | 404 kts | 279° |
| 2026-04-21 02:09 | 30.70987 | -99.76051 | 30213 ft | 404 kts | 279° |
| 2026-04-21 02:10 | 30.72120 | -99.82423 | 30212 ft | 405 kts | 279° |
| 2026-04-21 02:10 | 30.73258 | -99.88851 | 30204 ft | 406 kts | 279° |
| 2026-04-21 02:11 | 30.74389 | -99.95254 | 30204 ft | 406 kts | 279° |
| 2026-04-21 02:11 | 30.75516 | -100.01650 | 30201 ft | 406 kts | 279° |
| 2026-04-21 02:12 | 30.76641 | -100.08065 | 30198 ft | 406 kts | 279° |
| 2026-04-21 02:12 | 30.77762 | -100.14468 | 30196 ft | 406 kts | 279° |
| 2026-04-21 02:13 | 30.78880 | -100.20877 | 30196 ft | 406 kts | 279° |
| 2026-04-21 02:13 | 30.80003 | -100.27327 | 30196 ft | 406 kts | 279° |
| 2026-04-21 02:14 | 30.81114 | -100.33736 | 30195 ft | 406 kts | 279° |
| 2026-04-21 02:14 | 30.82223 | -100.40151 | 30192 ft | 406 kts | 279° |
| 2026-04-21 02:15 | 30.83335 | -100.46601 | 30192 ft | 406 kts | 279° |
| 2026-04-21 02:15 | 30.84433 | -100.52993 | 30184 ft | 405 kts | 279° |
| 2026-04-21 02:16 | 30.85528 | -100.59387 | 30189 ft | 405 kts | 279° |
| 2026-04-21 02:16 | 30.86625 | -100.65812 | 30188 ft | 404 kts | 278° |
| 2026-04-21 02:17 | 30.87715 | -100.72214 | 30189 ft | 404 kts | 278° |
| 2026-04-21 02:17 | 30.88802 | -100.78616 | 30188 ft | 404 kts | 278° |
| 2026-04-21 02:18 | 30.89882 | -100.85004 | 30192 ft | 404 kts | 278° |
| 2026-04-21 02:18 | 30.90963 | -100.91412 | 30191 ft | 405 kts | 278° |
| 2026-04-21 02:19 | 30.92040 | -100.97819 | 30188 ft | 404 kts | 278° |
| 2026-04-21 02:19 | 30.93117 | -101.04246 | 30189 ft | 404 kts | 278° |
| 2026-04-21 02:20 | 30.94187 | -101.10654 | 30198 ft | 404 kts | 278° |
| 2026-04-21 02:20 | 30.95248 | -101.17027 | 30201 ft | 404 kts | 278° |
| 2026-04-21 02:21 | 30.96316 | -101.23459 | 30208 ft | 404 kts | 278° |
| 2026-04-21 02:21 | 30.97373 | -101.29847 | 30201 ft | 404 kts | 278° |
| 2026-04-21 02:22 | 30.98434 | -101.36281 | 30199 ft | 404 kts | 278° |
| 2026-04-21 02:22 | 30.99485 | -101.42672 | 30200 ft | 404 kts | 278° |
| 2026-04-21 02:23 | 31.00538 | -101.49103 | 30197 ft | 404 kts | 278° |
| 2026-04-21 02:23 | 31.01589 | -101.55537 | 30192 ft | 405 kts | 279° |
| 2026-04-21 02:24 | 31.02638 | -101.61976 | 30190 ft | 404 kts | 279° |
| 2026-04-21 02:24 | 31.03676 | -101.68378 | 30197 ft | 405 kts | 278° |
| 2026-04-21 02:25 | 31.04720 | -101.74829 | 30192 ft | 405 kts | 278° |
| 2026-04-21 02:25 | 31.05756 | -101.81253 | 30198 ft | 406 kts | 278° |
| 2026-04-21 02:26 | 31.06793 | -101.87714 | 30188 ft | 407 kts | 278° |
| 2026-04-21 02:26 | 31.07832 | -101.94200 | 30189 ft | 407 kts | 278° |
| 2026-04-21 02:27 | 31.08866 | -102.00680 | 30187 ft | 407 kts | 278° |
| 2026-04-21 02:27 | 31.09893 | -102.07136 | 30183 ft | 407 kts | 278° |
| 2026-04-21 02:28 | 31.10920 | -102.13615 | 30177 ft | 407 kts | 278° |
| 2026-04-21 02:28 | 31.11943 | -102.20084 | 30172 ft | 407 kts | 278° |
| 2026-04-21 02:29 | 31.12967 | -102.26588 | 30173 ft | 407 kts | 278° |
| 2026-04-21 02:29 | 31.13981 | -102.33048 | 30172 ft | 407 kts | 278° |
| 2026-04-21 02:30 | 31.14998 | -102.39552 | 30167 ft | 407 kts | 278° |
| 2026-04-21 02:30 | 31.16005 | -102.46012 | 30162 ft | 407 kts | 278° |
| 2026-04-21 02:31 | 31.17015 | -102.52513 | 30162 ft | 407 kts | 278° |
| 2026-04-21 02:31 | 31.18015 | -102.58977 | 30160 ft | 407 kts | 278° |
| 2026-04-21 02:32 | 31.19016 | -102.65464 | 30156 ft | 406 kts | 277° |
| 2026-04-21 02:32 | 31.20009 | -102.71928 | 30161 ft | 407 kts | 278° |
| 2026-04-21 02:33 | 31.21000 | -102.78397 | 30159 ft | 407 kts | 278° |
| 2026-04-21 02:33 | 31.21991 | -102.84886 | 30156 ft | 407 kts | 278° |
| 2026-04-21 02:34 | 31.22982 | -102.91397 | 30155 ft | 407 kts | 278° |
| 2026-04-21 02:34 | 31.23967 | -102.97897 | 30153 ft | 408 kts | 278° |
| 2026-04-21 02:35 | 31.24947 | -103.04387 | 30154 ft | 408 kts | 278° |
| 2026-04-21 02:35 | 31.25931 | -103.10922 | 30153 ft | 408 kts | 278° |
| 2026-04-21 02:36 | 31.26907 | -103.17430 | 30146 ft | 409 kts | 278° |
| 2026-04-21 02:36 | 31.27881 | -103.23946 | 30153 ft | 408 kts | 278° |
| 2026-04-21 02:37 | 31.28849 | -103.30450 | 30145 ft | 408 kts | 278° |
| 2026-04-21 02:37 | 31.29820 | -103.36990 | 30149 ft | 408 kts | 278° |
| 2026-04-21 02:38 | 31.30783 | -103.43503 | 30150 ft | 408 kts | 278° |
| 2026-04-21 02:38 | 31.31746 | -103.50041 | 30141 ft | 409 kts | 278° |
| 2026-04-21 02:39 | 31.32706 | -103.56582 | 30151 ft | 408 kts | 278° |
| 2026-04-21 02:39 | 31.33661 | -103.63110 | 30146 ft | 409 kts | 278° |
| 2026-04-21 02:40 | 31.34611 | -103.69634 | 30148 ft | 409 kts | 278° |
| 2026-04-21 02:40 | 31.35563 | -103.76189 | 30161 ft | 409 kts | 278° |
| 2026-04-21 02:41 | 31.36508 | -103.82722 | 30151 ft | 410 kts | 278° |
| 2026-04-21 02:41 | 31.37452 | -103.89278 | 30153 ft | 411 kts | 278° |
| 2026-04-21 02:42 | 31.38400 | -103.95882 | 30150 ft | 412 kts | 278° |
| 2026-04-21 02:42 | 31.39341 | -104.02458 | 30145 ft | 412 kts | 278° |
| 2026-04-21 02:43 | 31.40279 | -104.09044 | 30148 ft | 412 kts | 278° |
| 2026-04-21 02:43 | 31.41215 | -104.15638 | 30154 ft | 411 kts | 278° |
| 2026-04-21 02:44 | 31.42149 | -104.22243 | 30166 ft | 411 kts | 278° |
| 2026-04-21 02:44 | 31.43072 | -104.28796 | 30169 ft | 411 kts | 278° |
| 2026-04-21 02:45 | 31.43999 | -104.35401 | 30168 ft | 410 kts | 278° |
| 2026-04-21 02:45 | 31.44918 | -104.41974 | 30181 ft | 410 kts | 278° |
| 2026-04-21 02:46 | 31.45675 | -104.48541 | 30195 ft | 409 kts | 277° |
| 2026-04-21 02:46 | 31.46372 | -104.55133 | 30194 ft | 408 kts | 277° |
| 2026-04-21 02:47 | 31.47060 | -104.61700 | 30187 ft | 409 kts | 277° |
| 2026-04-21 02:47 | 31.47745 | -104.68278 | 30192 ft | 409 kts | 277° |
| 2026-04-21 02:48 | 31.48434 | -104.74911 | 30176 ft | 409 kts | 277° |
| 2026-04-21 02:48 | 31.49112 | -104.81481 | 30157 ft | 401 kts | 277° |
| 2026-04-21 02:48 | 31.49437 | -104.84641 | 29924 ft | 394 kts | 277° |
| 2026-04-21 02:49 | 31.49763 | -104.87817 | 29272 ft | 397 kts | 277° |
| 2026-04-21 02:49 | 31.50092 | -104.91035 | 28777 ft | 397 kts | 277° |
| 2026-04-21 02:49 | 31.50421 | -104.94254 | 28227 ft | 398 kts | 277° |
| 2026-04-21 02:49 | 31.50747 | -104.97455 | 27826 ft | 395 kts | 277° |
| 2026-04-21 02:50 | 31.51065 | -105.00594 | 27475 ft | 391 kts | 277° |
| 2026-04-21 02:50 | 31.51385 | -105.03751 | 27149 ft | 387 kts | 277° |
| 2026-04-21 02:50 | 31.51701 | -105.06877 | 26674 ft | 388 kts | 277° |
| 2026-04-21 02:50 | 31.52016 | -105.09995 | 26206 ft | 388 kts | 277° |
| 2026-04-21 02:51 | 31.52329 | -105.13117 | 25770 ft | 383 kts | 277° |
| 2026-04-21 02:51 | 31.52640 | -105.16206 | 25102 ft | 382 kts | 278° |
| 2026-04-21 02:51 | 31.52947 | -105.19280 | 24372 ft | 382 kts | 277° |
| 2026-04-21 02:51 | 31.53254 | -105.22350 | 23687 ft | 379 kts | 277° |
| 2026-04-21 02:52 | 31.53556 | -105.25391 | 23072 ft | 376 kts | 277° |
| 2026-04-21 02:52 | 31.53853 | -105.28376 | 22483 ft | 372 kts | 277° |
| 2026-04-21 02:52 | 31.54151 | -105.31387 | 21842 ft | 369 kts | 277° |
| 2026-04-21 02:52 | 31.54443 | -105.34339 | 21351 ft | 368 kts | 277° |
| 2026-04-21 02:53 | 31.54733 | -105.37280 | 21074 ft | 361 kts | 277° |
| 2026-04-21 02:53 | 31.55020 | -105.40200 | 20560 ft | 360 kts | 277° |
| 2026-04-21 02:53 | 31.55304 | -105.43086 | 20069 ft | 357 kts | 277° |
| 2026-04-21 02:53 | 31.55584 | -105.45946 | 19573 ft | 355 kts | 277° |
| 2026-04-21 02:54 | 31.55865 | -105.48824 | 19125 ft | 351 kts | 277° |
| 2026-04-21 02:54 | 31.56140 | -105.51642 | 18673 ft | 347 kts | 277° |
| 2026-04-21 02:54 | 31.56407 | -105.54392 | 18109 ft | 344 kts | 277° |
| 2026-04-21 02:54 | 31.56676 | -105.57162 | 17455 ft | 343 kts | 277° |
| 2026-04-21 02:55 | 31.56943 | -105.59923 | 16831 ft | 340 kts | 277° |
| 2026-04-21 02:55 | 31.57209 | -105.62675 | 16172 ft | 337 kts | 277° |
| 2026-04-21 02:55 | 31.57469 | -105.65377 | 15530 ft | 335 kts | 276° |
| 2026-04-21 02:55 | 31.57729 | -105.68079 | 14888 ft | 332 kts | 276° |
| 2026-04-21 02:56 | 31.57982 | -105.70718 | 14300 ft | 329 kts | 276° |
| 2026-04-21 02:56 | 31.58486 | -105.75995 | 13316 ft | 315 kts | 276° |
| 2026-04-21 02:56 | 31.58719 | -105.78432 | 13299 ft | 295 kts | 276° |
| 2026-04-21 02:57 | 31.59273 | -105.80672 | 13219 ft | 280 kts | 297° |
| 2026-04-21 02:57 | 31.60237 | -105.82619 | 12857 ft | 276 kts | 299° |
| 2026-04-21 02:57 | 31.61214 | -105.84583 | 12294 ft | 280 kts | 299° |
| 2026-04-21 02:57 | 31.62187 | -105.86534 | 11828 ft | 281 kts | 299° |
| 2026-04-21 02:58 | 31.63180 | -105.88523 | 11404 ft | 280 kts | 299° |
| 2026-04-21 02:58 | 31.64161 | -105.90486 | 11001 ft | 278 kts | 299° |
| 2026-04-21 02:58 | 31.65127 | -105.92421 | 10557 ft | 279 kts | 299° |
| 2026-04-21 02:58 | 31.66111 | -105.94390 | 10128 ft | 278 kts | 299° |
| 2026-04-21 02:59 | 31.67086 | -105.96344 | 9727 ft | 277 kts | 300° |
| 2026-04-21 02:59 | 31.68061 | -105.98299 | 9301 ft | 278 kts | 300° |
| 2026-04-21 02:59 | 31.69028 | -106.00238 | 8903 ft | 277 kts | 300° |
| 2026-04-21 02:59 | 31.70003 | -106.02192 | 8472 ft | 278 kts | 300° |
| 2026-04-21 03:00 | 31.70976 | -106.04144 | 8157 ft | 274 kts | 300° |
| 2026-04-21 03:00 | 31.71904 | -106.06007 | 8120 ft | 259 kts | 300° |
| 2026-04-21 03:00 | 31.72798 | -106.07800 | 8110 ft | 250 kts | 300° |
| 2026-04-21 03:00 | 31.73539 | -106.09624 | 8112 ft | 244 kts | 290° |
| 2026-04-21 03:01 | 31.74152 | -106.11430 | 7996 ft | 238 kts | 291° |
| 2026-04-21 03:01 | 31.74779 | -106.13263 | 7674 ft | 241 kts | 291° |
| 2026-04-21 03:01 | 31.75398 | -106.15072 | 7387 ft | 241 kts | 291° |
| 2026-04-21 03:01 | 31.76025 | -106.16907 | 7125 ft | 240 kts | 291° |
| 2026-04-21 03:02 | 31.76638 | -106.18713 | 6867 ft | 240 kts | 291° |
| 2026-04-21 03:02 | 31.77254 | -106.20532 | 6603 ft | 239 kts | 291° |
| 2026-04-21 03:02 | 31.77852 | -106.22303 | 6434 ft | 230 kts | 291° |
| 2026-04-21 03:02 | 31.78449 | -106.24070 | 5951 ft | 235 kts | 291° |
| 2026-04-21 03:03 | 31.79044 | -106.25831 | 5504 ft | 227 kts | 291° |
| 2026-04-21 03:03 | 31.79562 | -106.27472 | 5287 ft | 195 kts | 284° |
| 2026-04-21 03:03 | 31.79711 | -106.28902 | 5261 ft | 161 kts | 270° |
| 2026-04-21 03:03 | 31.79757 | -106.30151 | 5055 ft | 148 kts | 273° |
| 2026-04-21 03:04 | 31.79831 | -106.31338 | 4827 ft | 147 kts | 274° |
| 2026-04-21 03:04 | 31.79902 | -106.32562 | 4575 ft | 150 kts | 273° |
| 2026-04-21 03:04 | 31.79948 | -106.33771 | 4371 ft | 150 kts | 271° |
| 2026-04-21 03:04 | 31.80020 | -106.35005 | 4159 ft | 150 kts | 274° |
| 2026-04-21 03:05 | 31.80075 | -106.36202 | 3965 ft | 145 kts | 274° |
| 2026-04-21 03:05 | 31.80127 | -106.37303 | 3947 ft | 120 kts | 273° |
| 2026-04-21 03:05 | 31.80162 | -106.38056 | 3937 ft | 62 kts | 273° |
| 2026-04-21 03:05 | 31.80181 | -106.38461 | 3933 ft | 39 kts | 273° |
| 2026-04-21 03:06 | 31.80191 | -106.38685 | 3930 ft | 15 kts | 274° |
| 2026-04-21 03:06 | 31.80183 | -106.38775 | 3929 ft | 9 kts | 221° |
| 2026-04-21 03:06 | 31.80115 | -106.38788 | 3928 ft | 9 kts | 183° |
| 2026-04-21 03:06 | 31.80051 | -106.38798 | 3928 ft | 9 kts | 210° |
| 2026-04-21 03:07 | 31.79999 | -106.38854 | 3927 ft | 9 kts | 231° |
| 2026-04-21 03:07 | 31.79989 | -106.38943 | 3925 ft | 9 kts | 270° |
| 2026-04-21 03:07 | 31.79989 | -106.39017 | 3924 ft | 9 kts | 274° |
| 2026-04-21 03:07 | 31.79982 | -106.39096 | 3924 ft | 10 kts | 257° |
| 2026-04-21 03:08 | 31.79963 | -106.39185 | 3924 ft | 10 kts | 256° |
| 2026-04-21 03:08 | 31.79952 | -106.39233 | 3924 ft | 2 kts | 249° |
| 2026-04-21 03:08 | 31.79941 | -106.39263 | 3924 ft | 5 kts | 252° |
| 2026-04-21 03:08 | 31.79931 | -106.39311 | 3923 ft | 6 kts | 257° |
| 2026-04-21 03:09 | 31.79922 | -106.39371 | 3922 ft | 6 kts | 276° |
| 2026-04-21 03:09 | 31.79941 | -106.39395 | 3922 ft | 3 kts | 334° |
| 2026-04-21 03:09 | 31.79960 | -106.39405 | 3922 ft | 3 kts | 338° |
| 2026-04-21 03:09 | 31.79968 | -106.39409 | 3922 ft | 0 kts | 337° |